Martinsburg, MO (65264)

12:03 PM CDT on May 26, 2015 (GMT -0500)
ALSAT Wireless | | Change Station
CLOSE
Current Station
Personal Weather Station
Location: Montgomery City, MO
Elevation: 810 ft
Nearby Weather Stations

Elev 810 ft 38.99 °N, 91.55 °W | Updated 5 seconds ago

Overcast
Overcast
66.3 °F
Feels Like 66.3 °F
N
5.0
Wind Variable Wind from SSW
Gusts 16.0 mph

Today
High -- | Low -- °F
--% Chance of Precip.
Yesterday
High -- | Low -- °F
Precip. -- in
5:45 AM 8:22 PM
First Quarter, 59% visible
Pressure 29.89 in
Visibility 10.0 miles
Clouds Scattered Clouds 1800 ft
Scattered Clouds 5000 ft
Dew Point 64 °F
Humidity 92%
Rainfall 0.27 in
Snow Depth Not available.
UV 9 out of 12
Pollen 7.30 out of 12
Air Quality Not available.
Flu Activity Sporadic
METAR KCOU 261654Z 23016G22KT 10SM SCT018 SCT050 22/17 A2991 RMK AO2 SLP122 T02170172

More Conditions Fewer Conditions

Pressure 29.89 in
Visibility 10.0 miles
Clouds Scattered Clouds 1800 ft
Scattered Clouds 5000 ft
Dew Point 64 °F
Humidity 92%
Rainfall 0.27 in
Snow Depth Not available.
UV 9 out of 12
Pollen 7.30 out of 12
Air Quality Not available.
Flu Activity Sporadic
METAR KCOU 261654Z 23016G22KT 10SM SCT018 SCT050 22/17 A2991 RMK AO2 SLP122 T02170172

More Conditions Fewer Conditions

10-Day Weather Forecast

Almanac

Astronomy

May. 26, 2015 Rise Set
Actual Time
Civil Twilight
Nautical Twilight
Astronomical Twilight
Moon
Length of Visible Light
Length of Day
Tomorrow will be .
, % of the Moon is Illuminated

Today's Extremes

State Highs State Lows

Community

WunderPhotos

Upload Photos

1,824,372 photos uploaded!

WunderBlogs® & News

Nearby

Air Quality

  Air Quality AQ Index Pollutant
Not available.

Snow Depth

Station Depth Elevation

Earthquake Activity

City Distance Mag. Time & Date
Minimum magnitude displayed is 2.5.

Coastal Water Temperatures

Place Temperature

Stations

Nearby Weather Stations

Station Location Temp. Windchill Dew Point Humidity Wind Precip. Elev Updated Type